Time;durP1;ratioP1;P1;durP2;ratioP2;P2;SDS_P1;SDS_P2;PMS_P1;PMS_P2;Temp;Humidity;BMP_temperature;BMP_pressure;BME280_temperature;BME280_humidity;BME280_pressure;Samples;Min_cycle;Max_cycle;Signal;HPM_P1;HPM_P2
2021/10/13 00:00:28;;;;;;;20.73;7.32;;;;;;;-141.50;100.00;63355.56;4919678;29;20047;-78
2021/10/13 00:02:55;;;;;;;21.92;8.35;;;;;;;-141.50;100.00;63355.56;4935593;29;20051;-78
2021/10/13 00:05:21;;;;;;;15.23;7.28;;;;;;;-141.50;100.00;63355.56;4919192;29;20039;-79
2021/10/13 00:07:48;;;;;;;13.32;7.43;;;;;;;-141.50;100.00;63355.56;4917450;29;20857;-79
2021/10/13 00:10:14;;;;;;;16.98;8.25;;;;;;;-141.50;100.00;63355.56;4935873;29;20036;-79
2021/10/13 00:12:41;;;;;;;17.73;8.13;;;;;;;-141.50;100.00;63355.56;4918003;29;20115;-79
2021/10/13 00:15:12;;;;;;;16.73;7.80;;;;;;;-141.50;100.00;63355.56;4918049;29;20044;-78
2021/10/13 00:17:38;;;;;;;20.52;7.55;;;;;;;-141.50;100.00;63355.56;4935197;29;20099;-78
2021/10/13 00:20:06;;;;;;;17.67;8.25;;;;;;;-141.50;100.00;63355.56;4917938;29;20044;-79
2021/10/13 00:22:33;;;;;;;16.63;7.80;;;;;;;-141.50;100.00;63355.56;4961918;23;20051;-84
2021/10/13 00:24:59;;;;;;;22.83;8.63;;;;;;;-141.50;100.00;63355.56;4945933;29;20530;-83
2021/10/13 00:27:26;;;;;;;16.75;8.80;;;;;;;-141.50;100.00;63355.56;4962198;29;20051;-84
2021/10/13 00:29:52;;;;;;;20.88;8.85;;;;;;;-141.50;100.00;63355.56;4963147;29;20043;-85
2021/10/13 00:32:19;;;;;;;20.65;8.63;;;;;;;-141.50;100.00;63355.56;4962710;29;20043;-84
2021/10/13 00:34:45;;;;;;;18.48;8.95;;;;;;;-141.50;100.00;63355.56;4947850;29;20070;-82
2021/10/13 00:37:12;;;;;;;18.95;9.75;;;;;;;-141.50;100.00;63355.56;4980803;23;20035;-81
2021/10/13 00:39:41;;;;;;;24.80;9.38;;;;;;;-141.50;100.00;63355.56;4969088;28;20531;-79
2021/10/13 00:42:07;;;;;;;19.10;8.95;;;;;;;-141.50;100.00;63355.56;4966829;28;20427;-80
2021/10/13 00:44:34;;;;;;;21.42;9.43;;;;;;;-141.50;100.00;63355.56;4966885;28;20061;-80
2021/10/13 00:47:00;;;;;;;20.33;9.88;;;;;;;-141.50;100.00;63355.56;4968345;28;20041;-82
2021/10/13 00:49:27;;;;;;;18.98;9.45;;;;;;;-141.50;100.00;63355.56;4967881;28;20046;-79
2021/10/13 00:51:54;;;;;;;20.80;9.73;;;;;;;-141.50;100.00;63355.56;4968215;28;20046;-80
2021/10/13 00:54:22;;;;;;;23.88;9.43;;;;;;;-141.50;100.00;63355.56;4966909;28;20046;-79
2021/10/13 00:56:49;;;;;;;26.27;9.40;;;;;;;-141.50;100.00;63355.56;4966966;28;20386;-81
2021/10/13 00:59:16;;;;;;;19.20;9.65;;;;;;;-141.50;100.00;63355.56;4966898;28;20039;-79
2021/10/13 01:01:57;;;;;;;19.75;10.10;;;;;;;-141.50;100.00;63355.56;4968083;28;20502;-79
2021/10/13 01:05:02;;;;;;;23.30;9.80;;;;;;;-141.50;100.00;63355.56;4967919;28;20202;-78
2021/10/13 01:07:35;;;;;;;17.38;9.60;;;;;;;-141.50;100.00;63355.56;4966075;28;20051;-82
2021/10/13 01:10:36;;;;;;;23.92;10.15;;;;;;;-141.50;100.00;63355.56;4969395;28;20062;-81
2021/10/13 01:13:10;;;;;;;28.67;11.77;;;;;;;-141.50;100.00;63355.56;4969574;28;20068;-81
2021/10/13 01:15:55;;;;;;;21.77;11.95;;;;;;;-141.50;100.00;63355.56;4955120;28;20101;-79
2021/10/13 01:18:27;;;;;;;27.95;12.88;;;;;;;-141.50;100.00;63355.56;4955383;28;20047;-80
2021/10/13 01:21:13;;;;;;;22.20;12.02;;;;;;;-141.50;100.00;63355.56;4972656;28;20043;-83
2021/10/13 01:23:53;;;;;;;32.20;12.98;;;;;;;-141.50;100.00;63355.56;4972082;28;20058;-80
2021/10/13 01:26:33;;;;;;;27.17;12.23;;;;;;;-141.50;100.00;63355.56;4971254;28;20054;-82
2021/10/13 01:29:07;;;;;;;29.52;13.10;;;;;;;-141.50;100.00;63355.56;4971282;28;20054;-82
2021/10/13 01:31:42;;;;;;;25.90;13.15;;;;;;;-141.50;100.00;63355.56;4970888;28;20341;-80
2021/10/13 01:34:29;;;;;;;28.42;13.10;;;;;;;-141.50;100.00;63355.56;4973201;28;20046;-80
2021/10/13 01:37:01;;;;;;;31.17;12.63;;;;;;;-141.50;100.00;63355.56;4972139;28;20042;-79
2021/10/13 01:39:30;;;;;;;24.00;13.23;;;;;;;-141.50;100.00;63355.56;4955571;28;20047;-81
2021/10/13 01:41:59;;;;;;;26.55;13.23;;;;;;;-141.50;100.00;63355.56;4971401;28;20058;-81
2021/10/13 01:44:30;;;;;;;32.35;13.77;;;;;;;-141.50;100.00;63355.56;4974084;28;20070;-79
2021/10/13 01:46:58;;;;;;;27.65;13.40;;;;;;;-141.50;100.00;63355.56;4956251;28;20149;-81
2021/10/13 01:49:30;;;;;;;29.00;13.20;;;;;;;-141.50;100.00;63355.56;4972683;28;20337;-80
2021/10/13 01:51:57;;;;;;;28.02;13.77;;;;;;;-141.50;100.00;63355.56;4973010;28;20053;-81
2021/10/13 01:54:25;;;;;;;25.92;13.57;;;;;;;-141.50;100.00;63355.56;4953777;28;20061;-79
2021/10/13 01:56:53;;;;;;;23.70;14.48;;;;;;;-141.50;100.00;63355.56;4970394;28;20309;-80
2021/10/13 01:59:22;;;;;;;25.80;14.68;;;;;;;-141.50;100.00;63355.56;4970640;28;20483;-80
2021/10/13 02:01:52;;;;;;;28.77;15.70;;;;;;;-141.50;100.00;63355.56;4971291;28;20153;-81
2021/10/13 02:04:19;;;;;;;28.50;15.45;;;;;;;-141.50;100.00;63355.56;4970781;28;20190;-79
2021/10/13 02:06:48;;;;;;;32.72;14.80;;;;;;;-141.50;100.00;63355.56;4971542;28;20046;-80
2021/10/13 02:09:16;;;;;;;27.60;14.73;;;;;;;-141.50;100.00;63355.56;4971656;28;20483;-80
2021/10/13 02:11:44;;;;;;;28.55;14.93;;;;;;;-141.50;100.00;63355.56;4974774;28;20038;-79
2021/10/13 02:14:14;;;;;;;30.50;16.33;;;;;;;-141.50;100.00;63355.56;4972154;28;20355;-80
2021/10/13 02:16:43;;;;;;;31.02;16.30;;;;;;;-141.50;100.00;63355.56;4972216;28;20074;-81
2021/10/13 02:19:14;;;;;;;29.40;16.55;;;;;;;-141.50;100.00;63355.56;4971867;28;20133;-80
2021/10/13 02:21:46;;;;;;;35.40;17.23;;;;;;;-141.50;100.00;63355.56;4967915;28;20043;-80
2021/10/13 02:24:21;;;;;;;35.83;18.33;;;;;;;-141.50;100.00;63355.56;4970122;28;20137;-77
2021/10/13 02:26:52;;;;;;;37.20;18.10;;;;;;;-141.50;100.00;63355.56;4970617;28;20046;-79
2021/10/13 02:29:20;;;;;;;31.00;17.30;;;;;;;-141.50;100.00;63355.56;4971284;28;20077;-82
2021/10/13 02:31:47;;;;;;;33.75;17.95;;;;;;;-141.50;100.00;63355.56;4973123;28;20039;-80
2021/10/13 02:34:14;;;;;;;37.03;18.42;;;;;;;-141.50;100.00;63355.56;4973019;28;20141;-78
2021/10/13 02:36:41;;;;;;;39.65;19.35;;;;;;;-141.50;100.00;63355.56;4970060;28;20119;-81
2021/10/13 02:39:08;;;;;;;35.05;19.05;;;;;;;-141.50;100.00;63355.56;4973169;28;20226;-78
2021/10/13 02:41:36;;;;;;;35.25;20.05;;;;;;;-141.50;100.00;63355.56;4969918;28;20520;-79
2021/10/13 02:44:04;;;;;;;38.63;21.75;;;;;;;-141.50;100.00;63355.56;4953979;28;20193;-80
2021/10/13 02:46:35;;;;;;;39.72;20.52;;;;;;;-141.50;100.00;63355.56;4957672;28;20063;-80
2021/10/13 02:49:28;;;;;;;45.60;21.90;;;;;;;-141.50;100.00;63355.56;4974816;28;20070;-81
2021/10/13 02:52:27;;;;;;;35.25;21.50;;;;;;;-141.50;100.00;63355.56;4954064;28;20046;-81
2021/10/13 02:55:08;;;;;;;43.72;21.75;;;;;;;-141.50;100.00;63355.56;4954849;28;20055;-81
2021/10/13 02:57:42;;;;;;;40.97;24.33;;;;;;;-141.50;100.00;63355.56;4953406;28;20047;-79
2021/10/13 03:00:11;;;;;;;40.50;24.95;;;;;;;-141.50;100.00;63355.56;4969004;28;20093;-81
2021/10/13 03:02:57;;;;;;;42.42;24.85;;;;;;;-141.50;100.00;63355.56;4954960;28;20064;-80
2021/10/13 03:05:27;;;;;;;;;;;;;;;-141.50;100.00;63355.56;4971065;28;20277;-78
2021/10/13 03:07:58;;;;;;;47.33;26.63;;;;;;;-141.50;100.00;63355.56;4954165;28;19957;-80
2021/10/13 03:10:27;;;;;;;56.42;28.90;;;;;;;-141.50;100.00;63355.56;4954003;28;20060;-82
2021/10/13 03:12:57;;;;;;;54.33;27.98;;;;;;;-141.50;100.00;63355.56;4954919;28;20161;-82
2021/10/13 03:15:25;;;;;;;48.50;28.30;;;;;;;-141.50;100.00;63355.56;4953506;28;20089;-81
2021/10/13 03:17:55;;;;;;;49.95;30.10;;;;;;;-141.50;100.00;63355.56;4953633;28;20224;-81
2021/10/13 03:20:23;;;;;;;49.28;29.55;;;;;;;-141.50;100.00;63355.56;4969722;28;20078;-81
2021/10/13 03:22:55;;;;;;;53.78;29.90;;;;;;;-141.50;100.00;63355.56;4953592;28;20043;-81
2021/10/13 03:25:32;;;;;;;50.85;29.25;;;;;;;-141.50;100.00;63355.56;4952669;28;20153;-81
2021/10/13 03:28:01;;;;;;;51.83;27.55;;;;;;;-141.50;100.00;63355.56;4961899;28;20062;-79
2021/10/13 03:30:28;;;;;;;52.88;28.42;;;;;;;-141.50;100.00;63355.56;4967500;28;20141;-82
2021/10/13 03:32:55;;;;;;;55.40;28.13;;;;;;;-141.50;100.00;63355.56;4950653;28;20138;-81
2021/10/13 03:35:25;;;;;;;50.95;26.75;;;;;;;-141.50;100.00;63355.56;4949968;29;20537;-85
2021/10/13 03:37:53;;;;;;;48.63;26.23;;;;;;;-141.50;100.00;63355.56;4934235;29;20073;-79
2021/10/13 03:40:21;;;;;;;47.65;27.40;;;;;;;-141.50;100.00;63355.56;4949269;29;20057;-83
2021/10/13 03:42:51;;;;;;;42.70;25.85;;;;;;;-141.50;100.00;63355.56;4949632;28;20490;-79
2021/10/13 03:45:21;;;;;;;49.72;26.95;;;;;;;-141.50;100.00;63355.56;4934593;29;20061;-83
2021/10/13 03:47:48;;;;;;;52.47;26.70;;;;;;;-141.50;100.00;63355.56;4933127;29;20520;-80
2021/10/13 03:50:19;;;;;;;50.20;26.23;;;;;;;-141.50;100.00;63355.56;4948561;29;20075;-80
2021/10/13 03:52:47;;;;;;;50.33;25.98;;;;;;;-141.50;100.00;63355.56;4949517;29;20082;-80
2021/10/13 03:55:16;;;;;;;43.90;25.58;;;;;;;-141.50;100.00;63355.56;4949097;29;20051;-80
2021/10/13 03:57:47;;;;;;;46.63;24.90;;;;;;;-141.50;100.00;63355.56;4932769;29;20059;-80
2021/10/13 04:00:16;;;;;;;52.47;25.73;;;;;;;-141.50;100.00;63355.56;4933585;29;20391;-80
2021/10/13 04:02:44;;;;;;;48.45;26.17;;;;;;;-141.50;100.00;63355.56;4949940;29;20138;-80
2021/10/13 04:05:12;;;;;;;49.08;26.05;;;;;;;-141.50;100.00;63355.56;4948880;29;20133;-81
2021/10/13 04:07:39;;;;;;;53.08;24.88;;;;;;;-141.50;100.00;63355.56;4940142;29;20062;-80
2021/10/13 04:10:08;;;;;;;51.50;26.63;;;;;;;-141.50;100.00;63355.56;4950856;29;20050;-81
2021/10/13 04:12:37;;;;;;;49.00;24.65;;;;;;;-141.50;100.00;63355.56;4951744;29;20062;-81
2021/10/13 04:15:06;;;;;;;46.75;24.33;;;;;;;-141.50;100.00;63355.56;4949700;29;20054;-82
2021/10/13 04:17:35;;;;;;;44.17;23.23;;;;;;;-141.50;100.00;63355.56;4964168;28;20177;-80
2021/10/13 04:20:09;;;;;;;42.83;24.25;;;;;;;-141.50;100.00;63355.56;4954793;28;20046;-79
2021/10/13 04:22:37;;;;;;;45.05;23.63;;;;;;;-141.50;100.00;63355.56;4970311;28;20057;-80
2021/10/13 04:25:05;;;;;;;45.63;23.38;;;;;;;-141.50;100.00;63355.56;4954397;28;20447;-81
2021/10/13 04:27:31;;;;;;;47.22;24.80;;;;;;;-141.50;100.00;63355.56;4970705;28;20077;-79
2021/10/13 04:29:58;;;;;;;48.15;24.30;;;;;;;-141.50;100.00;63355.56;4968987;28;20138;-79
2021/10/13 04:32:25;;;;;;;45.95;23.95;;;;;;;-141.50;100.00;63355.56;4954954;28;20317;-77
2021/10/13 04:34:51;;;;;;;41.75;23.67;;;;;;;-141.50;100.00;63355.56;4954338;28;20422;-79
2021/10/13 04:37:18;;;;;;;39.38;22.83;;;;;;;-141.50;100.00;63355.56;4946158;29;20043;-80
2021/10/13 04:39:45;;;;;;;46.05;24.10;;;;;;;-141.50;100.00;63355.56;4948978;29;20314;-79
2021/10/13 04:42:12;;;;;;;41.40;22.90;;;;;;;-141.50;100.00;63355.56;4949448;29;20059;-80
2021/10/13 04:44:39;;;;;;;37.67;22.08;;;;;;;-141.50;100.00;63355.56;4949038;28;20051;-79
2021/10/13 04:47:06;;;;;;;35.53;21.08;;;;;;;-141.50;100.00;63355.56;4933428;29;20075;-79
2021/10/13 04:49:33;;;;;;;38.83;21.48;;;;;;;-141.50;100.00;63355.56;4932102;29;20047;-79
2021/10/13 04:52:00;;;;;;;41.47;21.50;;;;;;;-141.50;100.00;63355.56;4947839;29;20063;-79
2021/10/13 04:54:26;;;;;;;36.75;22.88;;;;;;;-141.50;100.00;63355.56;4948744;28;20086;-79
2021/10/13 04:56:53;;;;;;;38.53;22.20;;;;;;;-141.50;100.00;63355.56;4949160;29;20142;-78
2021/10/13 04:59:20;;;;;;;40.25;22.88;;;;;;;-141.50;100.00;63355.56;4951321;29;20129;-80
2021/10/13 05:01:47;;;;;;;42.47;23.58;;;;;;;-141.50;100.00;63355.56;4950493;29;20134;-81
2021/10/13 05:04:15;;;;;;;46.75;23.13;;;;;;;-141.50;100.00;63355.56;4947985;29;20059;-83
2021/10/13 05:06:43;;;;;;;41.50;21.77;;;;;;;-141.50;100.00;63355.56;4933334;29;20054;-80
2021/10/13 05:09:11;;;;;;;41.03;22.25;;;;;;;-141.50;100.00;63355.56;4964653;28;20059;-81
2021/10/13 05:11:38;;;;;;;39.40;23.63;;;;;;;-141.50;100.00;63355.56;4950202;29;20043;-81
2021/10/13 05:14:05;;;;;;;37.85;21.45;;;;;;;-141.50;100.00;63355.56;4947747;29;20057;-80
2021/10/13 05:16:32;;;;;;;41.33;23.35;;;;;;;-141.50;100.00;63355.56;4947897;29;20051;-81
2021/10/13 05:18:59;;;;;;;39.75;23.08;;;;;;;-141.50;100.00;63355.56;4948777;29;20154;-82
2021/10/13 05:21:26;;;;;;;42.70;23.60;;;;;;;-141.50;100.00;63355.56;4932532;29;20467;-79
2021/10/13 05:23:54;;;;;;;45.47;25.23;;;;;;;-141.50;100.00;63355.56;4947958;29;20055;-81
2021/10/13 05:26:21;;;;;;;47.63;24.88;;;;;;;-141.50;100.00;63355.56;4964859;28;20067;-79
2021/10/13 05:28:47;;;;;;;48.38;26.10;;;;;;;-141.50;100.00;63355.56;4965294;28;20520;-80
2021/10/13 05:31:14;;;;;;;54.55;26.45;;;;;;;-141.50;100.00;63355.56;4948100;29;20065;-81
2021/10/13 05:33:41;;;;;;;54.60;27.27;;;;;;;-141.50;100.00;63355.56;4948315;29;20368;-80
2021/10/13 05:36:08;;;;;;;54.95;25.98;;;;;;;-141.50;100.00;63355.56;4950860;29;20052;-81
2021/10/13 05:38:53;;;;;;;55.22;27.70;;;;;;;-141.50;100.00;63355.56;4949112;29;20166;-81
2021/10/13 05:41:20;;;;;;;58.20;27.58;;;;;;;-141.50;100.00;63355.56;4932746;29;20055;-79
2021/10/13 05:43:46;;;;;;;53.67;25.70;;;;;;;-141.50;100.00;63355.56;4932445;29;20155;-82
2021/10/13 05:46:13;;;;;;;56.67;25.90;;;;;;;-141.50;100.00;63355.56;4951986;29;20055;-79
2021/10/13 05:48:40;;;;;;;53.47;26.85;;;;;;;-141.50;100.00;63355.56;4948714;29;20051;-80
2021/10/13 05:51:08;;;;;;;50.95;24.80;;;;;;;-141.50;100.00;63355.56;4948412;29;20178;-80
2021/10/13 05:53:35;;;;;;;53.00;25.20;;;;;;;-141.50;100.00;63355.56;4949077;29;20087;-81
2021/10/13 05:56:02;;;;;;;52.60;26.17;;;;;;;-141.50;100.00;63355.56;4950751;29;20354;-81
2021/10/13 05:58:29;;;;;;;56.38;27.23;;;;;;;-141.50;100.00;63355.56;4949185;29;20085;-80
2021/10/13 06:00:56;;;;;;;50.60;24.90;;;;;;;-141.50;100.00;63355.56;4950277;28;20063;-80
2021/10/13 06:03:24;;;;;;;46.35;24.58;;;;;;;-141.50;100.00;63355.56;4935816;29;20114;-81
2021/10/13 06:05:51;;;;;;;47.80;24.02;;;;;;;-141.50;100.00;63355.56;4935785;29;20051;-81
2021/10/13 06:08:17;;;;;;;40.65;22.40;;;;;;;-141.50;100.00;63355.56;4953130;29;20051;-79
2021/10/13 06:10:44;;;;;;;39.63;21.73;;;;;;;-141.50;100.00;63355.56;4949923;29;20051;-80
2021/10/13 06:13:11;;;;;;;40.30;22.00;;;;;;;-141.50;100.00;63355.56;4966841;28;20364;-81
2021/10/13 06:15:39;;;;;;;41.05;20.38;;;;;;;-141.50;100.00;63355.56;4951258;29;20387;-79
2021/10/13 06:18:10;;;;;;;40.15;20.08;;;;;;;-141.50;100.00;63355.56;4935795;29;20070;-81
2021/10/13 06:20:37;;;;;;;38.50;19.85;;;;;;;-141.50;100.00;63355.56;4951477;29;20047;-80
2021/10/13 06:23:04;;;;;;;41.08;21.10;;;;;;;-141.50;100.00;63355.56;4947605;23;20143;-83
2021/10/13 06:25:37;;;;;;;41.42;19.52;;;;;;;-141.50;100.00;63355.56;4901820;29;20062;-84
2021/10/13 06:28:08;;;;;;;36.95;19.85;;;;;;;-141.50;100.00;63355.56;4917333;29;20058;-83
2021/10/13 06:30:37;;;;;;;39.10;19.80;;;;;;;-141.50;100.00;63355.56;4901412;29;20139;-84
2021/10/13 06:33:05;;;;;;;41.55;20.13;;;;;;;-141.50;100.00;63355.56;4901709;29;20139;-84
2021/10/13 06:35:32;;;;;;;42.17;21.02;;;;;;;-141.50;100.00;63355.56;4917120;29;20072;-86
2021/10/13 06:38:01;;;;;;;39.72;20.48;;;;;;;-141.50;100.00;63355.56;4960474;23;20142;-78
2021/10/13 06:40:28;;;;;;;31.02;17.48;;;;;;;-141.50;100.00;63355.56;4967495;28;20082;-80
2021/10/13 06:42:55;;;;;;;29.88;18.20;;;;;;;-141.50;100.00;63355.56;4961564;29;20050;-83
2021/10/13 06:45:21;;;;;;;32.30;18.13;;;;;;;-141.50;100.00;63355.56;4960340;29;20051;-82
2021/10/13 06:47:48;;;;;;;35.40;18.90;;;;;;;-141.50;100.00;63355.56;4962509;28;20189;-78
2021/10/13 06:50:14;;;;;;;36.08;19.42;;;;;;;-141.50;100.00;63355.56;4964307;29;20043;-81
2021/10/13 06:52:41;;;;;;;36.72;19.60;;;;;;;-141.50;100.00;63355.56;4960560;29;20075;-80
2021/10/13 06:55:09;;;;;;;32.95;19.50;;;;;;;-141.50;100.00;63355.56;4960203;29;20055;-82
2021/10/13 06:57:36;;;;;;;32.17;19.45;;;;;;;-141.50;100.00;63355.56;4960424;28;20043;-80
2021/10/13 07:00:04;;;;;;;42.25;20.58;;;;;;;-141.50;100.00;63355.56;4966427;28;20054;-78
2021/10/13 07:02:31;;;;;;;33.38;18.15;;;;;;;-141.50;100.00;63355.56;4968143;28;20047;-78
2021/10/13 07:04:58;;;;;;;34.45;18.55;;;;;;;-141.50;100.00;63355.56;4969311;29;20103;-81
2021/10/13 07:07:25;;;;;;;28.73;17.63;;;;;;;-141.50;100.00;63355.56;4962844;28;20058;-79
2021/10/13 07:09:52;;;;;;;35.17;18.08;;;;;;;-141.50;100.00;63355.56;4965584;29;20051;-79
2021/10/13 07:12:18;;;;;;;33.58;18.02;;;;;;;-141.50;100.00;63355.56;4961056;28;20054;-80
2021/10/13 07:14:45;;;;;;;31.50;17.90;;;;;;;-141.50;100.00;63355.56;4963150;28;20051;-81
2021/10/13 07:17:11;;;;;;;35.30;17.13;;;;;;;-141.50;100.00;63355.56;4961369;29;20051;-80
2021/10/13 07:19:38;;;;;;;35.47;17.17;;;;;;;-141.50;100.00;63355.56;4960261;29;20615;-79
2021/10/13 07:22:04;;;;;;;33.03;16.58;;;;;;;-141.50;100.00;63355.56;4961625;29;20113;-81
2021/10/13 07:24:31;;;;;;;26.00;15.77;;;;;;;-141.50;100.00;63355.56;4962644;28;20061;-79
2021/10/13 07:26:57;;;;;;;34.90;16.75;;;;;;;-141.50;100.00;63355.56;4961910;28;20051;-79
2021/10/13 07:29:26;;;;;;;36.78;16.65;;;;;;;-141.50;100.00;63355.56;4960064;29;20047;-79
2021/10/13 07:31:54;;;;;;;32.25;15.65;;;;;;;-141.50;100.00;63355.56;4960338;28;20051;-79
2021/10/13 07:34:22;;;;;;;29.48;14.82;;;;;;;-141.50;100.00;63355.56;4959065;29;20121;-82
2021/10/13 07:36:48;;;;;;;27.83;14.35;;;;;;;-141.50;100.00;63355.56;4958977;28;20058;-79
2021/10/13 07:39:15;;;;;;;28.75;14.55;;;;;;;-141.50;100.00;63355.56;4959704;29;20553;-81
2021/10/13 07:41:42;;;;;;;27.65;16.67;;;;;;;-141.50;100.00;63355.56;4958646;29;20048;-82
2021/10/13 07:44:08;;;;;;;27.88;14.70;;;;;;;-141.50;100.00;63355.56;4959942;29;20043;-77
2021/10/13 07:46:35;;;;;;;25.98;14.50;;;;;;;-141.50;100.00;63355.56;4954716;29;20067;-80
2021/10/13 07:49:01;;;;;;;25.30;14.77;;;;;;;-141.50;100.00;63355.56;4956473;29;20053;-80
2021/10/13 07:51:28;;;;;;;29.15;16.02;;;;;;;-141.50;100.00;63355.56;4954716;29;20441;-78
2021/10/13 07:53:54;;;;;;;27.60;16.90;;;;;;;-141.50;100.00;63355.56;4956592;28;20199;-79
2021/10/13 07:56:21;;;;;;;28.58;16.63;;;;;;;-141.50;100.00;63355.56;4957739;29;20472;-80
2021/10/13 07:58:48;;;;;;;29.27;17.75;;;;;;;-141.50;100.00;63355.56;4958306;28;20063;-79
2021/10/13 08:01:14;;;;;;;28.65;17.10;;;;;;;-141.50;100.00;63355.56;4957607;29;20077;-80
2021/10/13 08:03:41;;;;;;;30.70;18.20;;;;;;;-141.50;100.00;63355.56;4959737;29;20043;-80
2021/10/13 08:06:09;;;;;;;33.92;18.70;;;;;;;-141.50;100.00;63355.56;4962886;28;20048;-81
2021/10/13 08:08:35;;;;;;;31.55;18.10;;;;;;;-141.50;100.00;63355.56;4958446;29;20055;-80
2021/10/13 08:11:02;;;;;;;27.60;16.52;;;;;;;-141.50;100.00;63355.56;4958080;29;20054;-80
2021/10/13 08:13:29;;;;;;;26.55;16.65;;;;;;;-141.50;100.00;63355.56;4958222;28;20439;-81
2021/10/13 08:15:55;;;;;;;32.47;14.93;;;;;;;-141.50;100.00;63355.56;4957801;29;20440;-79
2021/10/13 08:18:22;;;;;;;27.02;14.70;;;;;;;-141.50;100.00;63355.56;4957387;29;20055;-81
2021/10/13 08:20:49;;;;;;;25.80;14.75;;;;;;;-141.50;100.00;63355.56;4959762;28;20055;-79
2021/10/13 08:23:15;;;;;;;22.13;14.18;;;;;;;-141.50;100.00;63355.56;4958304;28;20522;-79
2021/10/13 08:25:42;;;;;;;26.58;14.23;;;;;;;-141.50;100.00;63355.56;4957678;29;20050;-79
2021/10/13 08:28:09;;;;;;;24.45;14.38;;;;;;;-141.50;100.00;63355.56;4959642;28;20043;-80
2021/10/13 08:30:36;;;;;;;22.73;14.60;;;;;;;-141.50;100.00;63355.56;4951678;29;20051;-81
2021/10/13 08:33:05;;;;;;;23.52;15.20;;;;;;;-141.50;100.00;63355.56;4952555;29;20138;-81
2021/10/13 08:35:32;;;;;;;29.00;16.67;;;;;;;-141.50;100.00;63355.56;4956606;28;20058;-78
2021/10/13 08:37:59;;;;;;;25.95;15.43;;;;;;;-141.50;100.00;63355.56;4954669;29;20137;-78
2021/10/13 08:40:25;;;;;;;24.88;16.58;;;;;;;-141.50;100.00;63355.56;4959370;29;20047;-81
2021/10/13 08:42:56;;;;;;;24.83;15.35;;;;;;;-141.50;100.00;63355.56;4955949;29;20043;-76
2021/10/13 08:45:24;;;;;;;26.65;14.82;;;;;;;-141.50;100.00;63355.56;4955260;29;20053;-78
2021/10/13 08:47:51;;;;;;;23.65;13.00;;;;;;;-141.50;100.00;63355.56;4958998;29;20118;-77
2021/10/13 08:50:18;;;;;;;23.42;14.30;;;;;;;-141.50;100.00;63355.56;4958339;29;20051;-79
2021/10/13 08:52:46;;;;;;;21.17;13.80;;;;;;;-141.50;100.00;63355.56;4958337;29;20054;-78
2021/10/13 08:55:13;;;;;;;16.67;12.35;;;;;;;-141.50;100.00;63355.56;4958527;28;20039;-78
2021/10/13 08:57:39;;;;;;;19.75;11.18;;;;;;;-141.50;100.00;63355.56;4957915;28;20067;-78
2021/10/13 09:00:07;;;;;;;16.77;11.32;;;;;;;-141.50;100.00;63355.56;4959556;29;20047;-79
2021/10/13 09:02:47;;;;;;;18.05;11.52;;;;;;;-141.50;100.00;63355.56;4956488;29;20058;-81
2021/10/13 09:05:20;;;;;;;19.02;10.90;;;;;;;-141.50;100.00;63355.56;4956679;28;20055;-78
2021/10/13 09:07:56;;;;;;;23.30;11.65;;;;;;;-141.50;100.00;63355.56;4951936;29;20047;-77
2021/10/13 09:10:30;;;;;;;16.83;10.52;;;;;;;-141.50;100.00;63355.56;4963321;28;20049;-77
2021/10/13 09:13:10;;;;;;;14.07;9.07;;;;;;;-141.50;100.00;63355.56;4953653;28;20520;-75
2021/10/13 09:15:39;;;;;;;13.75;9.18;;;;;;;-141.50;100.00;63355.56;4934668;29;20051;-77
2021/10/13 09:18:07;;;;;;;17.00;8.20;;;;;;;-141.50;100.00;63355.56;4938370;29;20463;-77
2021/10/13 09:20:40;;;;;;;13.88;7.28;;;;;;;-141.50;100.00;63355.56;4937665;29;20044;-79
2021/10/13 09:23:29;;;;;;;8.80;5.00;;;;;;;-141.50;100.00;63355.56;4938591;29;20040;-79
2021/10/13 09:26:10;;;;;;;7.82;4.95;;;;;;;-141.50;100.00;63355.56;4970286;28;20050;-78
2021/10/13 09:28:40;;;;;;;8.05;5.18;;;;;;;-141.50;100.00;63355.56;4937372;29;20051;-78
2021/10/13 09:31:16;;;;;;;6.07;3.90;;;;;;;-141.50;100.00;63355.56;4939603;29;20039;-79
2021/10/13 09:33:54;;;;;;;7.95;3.97;;;;;;;-141.50;100.00;63355.56;4939788;29;20043;-78
2021/10/13 09:36:21;;;;;;;6.90;3.75;;;;;;;-141.50;100.00;63355.56;4940016;29;20047;-81
2021/10/13 09:38:47;;;;;;;8.93;3.30;;;;;;;-141.50;100.00;63355.56;4923785;29;20082;-80
2021/10/13 09:41:14;;;;;;;5.00;2.90;;;;;;;-141.50;100.00;63355.56;4943124;29;20047;-80
2021/10/13 09:43:40;;;;;;;6.22;2.28;;;;;;;-141.50;100.00;63355.56;4942068;29;20050;-80
2021/10/13 09:46:14;;;;;;;7.75;2.60;;;;;;;-141.50;100.00;63355.56;4945394;29;20044;-78
2021/10/13 09:48:43;;;;;;;9.48;3.10;;;;;;;-141.50;100.00;63355.56;4943977;29;20047;-79
2021/10/13 09:51:15;;;;;;;10.80;2.95;;;;;;;-141.50;100.00;63355.56;4944465;29;20040;-81
2021/10/13 09:53:44;;;;;;;4.70;2.97;;;;;;;-141.50;100.00;63355.56;4939935;29;20044;-80
2021/10/13 09:56:46;;;;;;;6.20;3.40;;;;;;;-141.50;100.00;63355.56;4937592;29;20083;-78
2021/10/13 09:59:15;;;;;;;5.15;2.67;;;;;;;-141.50;100.00;63355.56;4921388;29;20063;-80
2021/10/13 10:01:52;;;;;;;5.60;2.67;;;;;;;-141.50;100.00;63355.56;4939674;29;20060;-78
2021/10/13 10:04:23;;;;;;;4.93;3.17;;;;;;;-141.50;100.00;63355.56;4944072;29;20063;-79
2021/10/13 10:06:53;;;;;;;7.40;2.58;;;;;;;-141.50;100.00;63355.56;4944452;29;20206;-80
2021/10/13 10:09:23;;;;;;;6.07;2.60;;;;;;;-141.50;100.00;63355.56;4942006;29;20121;-80
2021/10/13 10:12:05;;;;;;;6.65;2.50;;;;;;;-141.50;100.00;63355.56;4942522;29;20047;-79
2021/10/13 10:14:43;;;;;;;4.82;2.22;;;;;;;-141.50;100.00;63355.56;4942846;29;20107;-79
2021/10/13 10:17:12;;;;;;;4.07;2.30;;;;;;;-141.50;100.00;63355.56;4942620;29;20551;-79
2021/10/13 10:19:48;;;;;;;7.78;2.75;;;;;;;-141.50;100.00;63355.56;4943397;29;20403;-82
2021/10/13 10:22:18;;;;;;;6.05;3.13;;;;;;;-141.50;100.00;63355.56;4974830;28;20123;-79
2021/10/13 10:24:53;;;;;;;10.93;3.53;;;;;;;-141.50;100.00;63355.56;4941891;29;20051;-79
2021/10/13 10:27:21;;;;;;;6.90;3.07;;;;;;;-141.50;100.00;63355.56;4943749;29;20074;-78
2021/10/13 10:29:48;;;;;;;5.28;2.50;;;;;;;-141.50;100.00;63355.56;4943592;29;20577;-77
2021/10/13 10:32:19;;;;;;;4.20;1.75;;;;;;;-141.50;100.00;63355.56;4942671;29;20051;-81
2021/10/13 10:35:04;;;;;;;4.35;1.90;;;;;;;-141.50;100.00;63355.56;4975050;28;20066;-80
2021/10/13 10:37:41;;;;;;;5.63;1.70;;;;;;;-141.50;100.00;63355.56;4936000;29;20052;-79
2021/10/13 10:40:33;;;;;;;8.52;1.80;;;;;;;-141.50;100.00;63355.56;4935926;29;20043;-81
2021/10/13 10:43:04;;;;;;;3.50;1.50;;;;;;;-141.50;100.00;63355.56;4938694;29;20051;-80
2021/10/13 10:45:49;;;;;;;3.20;1.70;;;;;;;-141.50;100.00;63355.56;4955305;28;20500;-80
2021/10/13 10:48:16;;;;;;;3.45;1.50;;;;;;;-141.50;100.00;63355.56;4939591;29;20360;-81
2021/10/13 10:50:52;;;;;;;4.25;2.00;;;;;;;-141.50;100.00;63355.56;4938871;29;20051;-79
2021/10/13 10:53:31;;;;;;;2.38;1.42;;;;;;;-141.50;100.00;63355.56;4939888;29;20403;-79
2021/10/13 10:56:30;;;;;;;4.22;1.30;;;;;;;-141.50;100.00;63355.56;4939691;29;20047;-78
2021/10/13 10:58:57;;;;;;;4.15;1.33;;;;;;;-141.50;100.00;63355.56;4938515;29;20103;-78
2021/10/13 11:01:24;;;;;;;3.05;1.10;;;;;;;-141.50;100.00;63355.56;4939201;29;20165;-78
2021/10/13 11:03:51;;;;;;;2.72;1.17;;;;;;;-141.50;100.00;63355.56;4941091;29;20050;-78
2021/10/13 11:06:21;;;;;;;2.33;1.00;;;;;;;-141.50;100.00;63355.56;4940249;29;20047;-78
2021/10/13 11:08:52;;;;;;;4.20;1.38;;;;;;;-141.50;100.00;63355.56;4937584;29;20048;-79